createdAt,value
2023-01-19T00:00:23.405Z,12.80
2023-01-19T00:00:55.122Z,13.40
2023-01-19T00:01:27.043Z,13.57
2023-01-19T00:01:58.670Z,13.67
2023-01-19T00:02:30.377Z,13.67
2023-01-19T00:03:07.066Z,13.43
2023-01-19T00:03:38.977Z,12.20
2023-01-19T00:04:10.760Z,13.20
2023-01-19T00:04:44.533Z,14.57
2023-01-19T00:05:16.619Z,13.57
2023-01-19T00:05:48.336Z,12.97
2023-01-19T00:06:22.664Z,13.10
2023-01-19T00:06:54.356Z,13.07
2023-01-19T00:07:25.992Z,12.67
2023-01-19T00:08:14.637Z,12.80
2023-01-19T00:08:48.698Z,13.20
2023-01-19T00:09:22.231Z,13.03
2023-01-19T00:09:55.805Z,12.70
2023-01-19T00:10:29.835Z,13.23
2023-01-19T00:11:02.264Z,12.80
2023-01-19T00:11:33.914Z,11.30
2023-01-19T00:12:06.119Z,11.23
2023-01-19T00:12:37.781Z,11.27
2023-01-19T00:13:09.469Z,10.93
2023-01-19T00:13:52.288Z,10.83
2023-01-19T00:14:23.959Z,9.97
2023-01-19T00:14:58.484Z,11.37
2023-01-19T00:15:30.110Z,11.17
2023-01-19T00:16:01.834Z,10.10
2023-01-19T00:16:33.520Z,9.90
2023-01-19T00:17:05.368Z,9.33
2023-01-19T00:17:37.080Z,9.57
2023-01-19T00:18:10.556Z,9.43
2023-01-19T00:18:42.878Z,9.27
2023-01-19T00:19:14.617Z,9.13
2023-01-19T00:19:46.276Z,8.27
2023-01-19T00:20:19.080Z,8.87
2023-01-19T00:20:50.723Z,9.13
2023-01-19T00:21:22.431Z,8.53
2023-01-19T00:21:56.793Z,7.80
2023-01-19T00:22:30.673Z,8.23
2023-01-19T00:23:04.739Z,8.07
2023-01-19T00:23:36.477Z,8.33
2023-01-19T00:24:08.247Z,8.00
2023-01-19T00:24:39.901Z,8.13
2023-01-19T00:25:19.085Z,8.07
2023-01-19T00:25:51.285Z,7.47
2023-01-19T00:26:22.930Z,7.80
2023-01-19T00:26:54.576Z,7.07
2023-01-19T00:27:26.210Z,7.73
2023-01-19T00:27:59.304Z,7.83
2023-01-19T00:28:32.220Z,6.97
2023-01-19T00:29:06.911Z,7.40
2023-01-19T00:29:38.592Z,7.50
2023-01-19T00:30:10.803Z,7.13
2023-01-19T00:30:42.828Z,7.53
2023-01-19T00:31:14.491Z,7.37
2023-01-19T00:31:46.170Z,7.30
2023-01-19T00:32:18.158Z,7.23
2023-01-19T00:32:49.893Z,6.77
2023-01-19T00:33:21.518Z,6.60
2023-01-19T00:33:53.237Z,7.20
2023-01-19T00:34:24.867Z,6.77
2023-01-19T00:34:58.478Z,6.87
2023-01-19T00:35:30.126Z,7.43
2023-01-19T00:36:01.892Z,7.27
2023-01-19T00:36:34.243Z,7.13
2023-01-19T00:37:07.396Z,7.00
2023-01-19T00:37:39.021Z,7.27
2023-01-19T00:38:14.956Z,7.90
2023-01-19T00:38:46.613Z,7.33
2023-01-19T00:39:18.311Z,7.57
2023-01-19T00:39:50.370Z,7.07
2023-01-19T00:40:23.256Z,7.90
2023-01-19T00:40:54.879Z,7.93
2023-01-19T00:41:45.134Z,8.03
2023-01-19T00:42:35.634Z,7.70
2023-01-19T00:43:09.367Z,6.97
2023-01-19T00:43:43.143Z,7.00
2023-01-19T00:44:14.871Z,7.43
2023-01-19T00:44:49.378Z,7.47
2023-01-19T00:45:23.915Z,7.27
2023-01-19T00:45:55.620Z,7.73
2023-01-19T00:46:27.266Z,7.57
2023-01-19T00:47:01.055Z,7.77
2023-01-19T00:47:33.350Z,7.70
2023-01-19T00:48:05.643Z,7.60
2023-01-19T00:48:37.336Z,7.80
2023-01-19T00:49:09.143Z,7.97
2023-01-19T00:49:43.191Z,8.17
2023-01-19T00:50:20.421Z,7.77
2023-01-19T00:50:52.074Z,7.30
2023-01-19T00:51:25.323Z,7.57
2023-01-19T00:51:57.294Z,7.47
2023-01-19T00:52:31.327Z,8.23
2023-01-19T00:53:05.831Z,7.80
2023-01-19T00:53:39.526Z,8.00
2023-01-19T00:54:13.867Z,8.23
2023-01-19T00:54:45.511Z,8.07
2023-01-19T00:55:17.287Z,7.63
2023-01-19T00:55:48.909Z,7.43
2023-01-19T00:56:20.583Z,7.30
2023-01-19T00:56:52.223Z,7.30
2023-01-19T00:57:23.943Z,7.67
2023-01-19T00:57:56.243Z,7.70
2023-01-19T00:58:27.911Z,8.00
2023-01-19T00:59:03.145Z,7.13
2023-01-19T00:59:34.896Z,6.97
2023-01-19T01:00:11.636Z,7.30
2023-01-19T01:00:44.670Z,6.93
2023-01-19T01:01:16.465Z,6.53
2023-01-19T01:01:48.289Z,6.73
2023-01-19T01:02:20.067Z,6.77
2023-01-19T01:02:53.077Z,6.67
2023-01-19T01:03:36.298Z,6.43
2023-01-19T01:04:07.957Z,6.33
2023-01-19T01:04:39.651Z,6.07
2023-01-19T01:05:12.525Z,6.07
2023-01-19T01:05:44.129Z,6.37
2023-01-19T01:06:15.791Z,7.17
2023-01-19T01:06:47.498Z,7.13
2023-01-19T01:07:20.916Z,6.33
2023-01-19T01:07:52.548Z,6.70
2023-01-19T01:08:24.367Z,6.77
2023-01-19T01:08:58.460Z,6.70
2023-01-19T01:09:33.304Z,6.73
2023-01-19T01:10:07.618Z,6.97
2023-01-19T01:10:42.783Z,5.90
2023-01-19T01:11:14.575Z,5.57
2023-01-19T01:11:46.222Z,5.63
2023-01-19T01:12:26.652Z,5.27
2023-01-19T01:13:19.391Z,6.13
2023-01-19T01:13:53.018Z,6.00
2023-01-19T01:14:26.797Z,5.43
2023-01-19T01:14:58.473Z,5.90
2023-01-19T01:15:30.585Z,6.10
2023-01-19T01:16:03.917Z,5.83
2023-01-19T01:16:35.626Z,5.53
2023-01-19T01:17:13.738Z,5.20
2023-01-19T01:17:48.957Z,5.83
2023-01-19T01:18:22.021Z,5.67
2023-01-19T01:18:53.684Z,5.43
2023-01-19T01:19:25.383Z,5.00
2023-01-19T01:20:04.269Z,5.83
2023-01-19T01:20:37.504Z,5.53
2023-01-19T01:21:09.685Z,5.57
2023-01-19T01:21:42.072Z,5.60
2023-01-19T01:22:16.290Z,5.40
2023-01-19T01:22:53.765Z,5.30
2023-01-19T01:23:25.415Z,5.63
2023-01-19T01:23:58.579Z,5.87
2023-01-19T01:24:30.354Z,5.37
2023-01-19T01:25:01.949Z,5.57
2023-01-19T01:25:37.469Z,5.70
2023-01-19T01:26:10.656Z,5.80
2023-01-19T01:26:42.307Z,5.30
2023-01-19T01:27:13.979Z,5.47
2023-01-19T01:27:45.665Z,5.30
2023-01-19T01:28:17.318Z,5.27
2023-01-19T01:28:48.960Z,5.20
2023-01-19T01:29:20.620Z,5.13
2023-01-19T01:29:56.535Z,5.43
2023-01-19T01:30:28.160Z,4.77
2023-01-19T01:30:59.804Z,4.60
2023-01-19T01:31:31.664Z,4.87
2023-01-19T01:32:04.226Z,4.83
2023-01-19T01:32:36.172Z,4.80
2023-01-19T01:33:08.327Z,5.00
2023-01-19T01:33:41.798Z,4.73
2023-01-19T01:34:13.746Z,4.67
2023-01-19T01:34:45.493Z,4.03
2023-01-19T01:35:17.563Z,4.67
2023-01-19T01:35:50.478Z,4.63
2023-01-19T01:36:26.578Z,4.57
2023-01-19T01:36:58.253Z,4.33
2023-01-19T01:37:32.726Z,4.23
2023-01-19T01:38:04.378Z,4.20
2023-01-19T01:38:36.038Z,4.40
2023-01-19T01:39:07.656Z,4.27
2023-01-19T01:39:39.308Z,4.33
2023-01-19T01:40:14.893Z,4.57
2023-01-19T01:40:46.517Z,4.17
2023-01-19T01:41:18.159Z,4.23
2023-01-19T01:41:54.010Z,3.57
2023-01-19T01:42:30.732Z,3.70
2023-01-19T01:43:03.504Z,4.03
2023-01-19T01:43:52.785Z,4.10
2023-01-19T01:44:55.403Z,3.60
2023-01-19T01:45:40.946Z,4.03
2023-01-19T01:46:15.555Z,3.97
2023-01-19T01:46:47.403Z,3.40
2023-01-19T01:47:49.261Z,3.40
2023-01-19T01:48:25.657Z,2.83
2023-01-19T01:49:04.386Z,3.27
2023-01-19T01:49:36.471Z,2.80
2023-01-19T01:50:20.541Z,2.77
2023-01-19T01:51:17.927Z,2.87
2023-01-19T01:51:55.776Z,2.73
2023-01-19T01:52:34.700Z,2.70
2023-01-19T01:53:12.196Z,2.73
2023-01-19T01:53:47.475Z,3.00
2023-01-19T01:54:21.666Z,2.47
2023-01-19T01:54:53.757Z,2.33
2023-01-19T01:55:27.446Z,2.33
2023-01-19T01:56:01.819Z,2.63
2023-01-19T01:56:40.318Z,2.87
2023-01-19T01:57:13.183Z,2.47
2023-01-19T01:57:53.114Z,2.67
2023-01-19T01:58:24.875Z,2.57
2023-01-19T01:58:58.261Z,2.47
2023-01-19T01:59:39.307Z,2.60
2023-01-19T02:00:11.954Z,2.20
2023-01-19T02:01:02.234Z,2.57
2023-01-19T02:01:52.919Z,2.13
2023-01-19T02:02:47.643Z,1.80
2023-01-19T02:03:22.294Z,1.93
2023-01-19T02:03:56.322Z,2.20
2023-01-19T02:04:29.877Z,1.83
2023-01-19T02:05:07.888Z,1.73
2023-01-19T02:05:40.277Z,2.00
2023-01-19T02:06:13.702Z,1.80
2023-01-19T02:07:08.808Z,1.60
2023-01-19T02:08:12.476Z,1.73
2023-01-19T02:09:10.610Z,1.87
2023-01-19T02:10:03.348Z,1.67
2023-01-19T02:10:54.564Z,1.77
2023-01-19T02:11:45.305Z,1.40
2023-01-19T02:12:35.854Z,1.60
2023-01-19T02:13:25.577Z,1.60
2023-01-19T02:13:57.506Z,1.70
2023-01-19T02:14:29.135Z,1.83
2023-01-19T02:15:02.986Z,1.73
2023-01-19T02:15:34.604Z,1.77
2023-01-19T02:16:10.743Z,1.90
2023-01-19T02:16:42.785Z,1.33
2023-01-19T02:17:17.027Z,1.57
2023-01-19T02:17:51.278Z,1.80
2023-01-19T02:18:29.011Z,1.60
2023-01-19T02:19:01.228Z,1.67
2023-01-19T02:19:43.689Z,1.77
2023-01-19T02:20:16.159Z,1.63
2023-01-19T02:21:18.903Z,1.67
2023-01-19T02:22:36.116Z,1.67
2023-01-19T02:23:18.700Z,1.47
2023-01-19T02:23:51.789Z,1.87
2023-01-19T02:24:24.472Z,1.60
2023-01-19T02:24:57.083Z,1.60
2023-01-19T02:25:30.387Z,1.60
2023-01-19T02:26:03.386Z,1.43
2023-01-19T02:26:47.144Z,1.67
2023-01-19T02:27:22.310Z,1.63
2023-01-19T02:27:54.040Z,1.67
2023-01-19T02:28:28.354Z,1.57
2023-01-19T02:29:07.365Z,1.67
2023-01-19T02:29:41.958Z,1.13
2023-01-19T02:30:14.381Z,1.40
2023-01-19T02:30:46.148Z,1.20
2023-01-19T02:31:23.953Z,1.37
2023-01-19T02:31:59.661Z,1.17
2023-01-19T02:32:31.375Z,1.07
2023-01-19T02:33:05.233Z,1.17
2023-01-19T02:33:39.608Z,1.30
2023-01-19T02:34:15.532Z,1.10
2023-01-19T02:34:48.448Z,1.00
2023-01-19T02:35:22.849Z,1.03
2023-01-19T02:35:56.889Z,1.07
2023-01-19T02:36:38.701Z,0.93
2023-01-19T02:37:14.942Z,1.17
2023-01-19T02:37:47.879Z,1.10
2023-01-19T02:38:24.037Z,1.03
2023-01-19T02:38:57.891Z,1.17
2023-01-19T02:39:36.471Z,1.17
2023-01-19T02:40:19.820Z,1.27
2023-01-19T02:40:55.709Z,1.17
2023-01-19T02:41:34.311Z,1.03
2023-01-19T02:42:18.077Z,1.23
2023-01-19T02:42:55.083Z,1.07
2023-01-19T02:43:32.594Z,0.83
2023-01-19T02:44:09.470Z,0.83
2023-01-19T02:44:46.990Z,1.00
2023-01-19T02:45:22.186Z,1.03
2023-01-19T02:45:54.556Z,1.03
2023-01-19T02:46:28.234Z,0.93
2023-01-19T02:46:59.917Z,1.13
2023-01-19T02:47:45.402Z,1.17
2023-01-19T02:48:23.202Z,1.07
2023-01-19T02:49:02.174Z,1.10
2023-01-19T02:49:36.261Z,0.83
2023-01-19T02:50:53.417Z,1.03
2023-01-19T02:51:25.194Z,0.93
2023-01-19T02:51:59.011Z,0.97
2023-01-19T02:52:31.231Z,0.90
2023-01-19T02:53:28.015Z,1.03
2023-01-19T02:54:16.610Z,1.00
2023-01-19T02:54:54.262Z,1.13
2023-01-19T02:55:29.721Z,1.10
2023-01-19T02:56:24.824Z,1.00
2023-01-19T02:57:05.150Z,1.10
2023-01-19T02:57:48.922Z,1.40
2023-01-19T02:58:34.570Z,1.23
2023-01-19T02:59:21.044Z,1.27
2023-01-19T03:00:30.015Z,1.37
2023-01-19T03:01:27.888Z,1.13
2023-01-19T03:02:29.613Z,1.13
2023-01-19T03:03:30.483Z,1.03
2023-01-19T03:04:17.953Z,1.17
2023-01-19T03:05:27.246Z,1.20
2023-01-19T03:06:14.536Z,1.10
2023-01-19T03:06:50.942Z,1.03
2023-01-19T03:07:40.453Z,1.00
2023-01-19T03:08:36.218Z,1.03
2023-01-19T03:09:34.797Z,1.10
2023-01-19T03:10:13.385Z,0.87
2023-01-19T03:11:01.416Z,0.80
2023-01-19T03:11:46.891Z,0.80
2023-01-19T03:12:47.095Z,0.87
2023-01-19T03:13:42.392Z,0.77
2023-01-19T03:14:21.989Z,0.63
2023-01-19T03:15:01.702Z,0.77
2023-01-19T03:15:47.630Z,0.73
2023-01-19T03:16:27.268Z,0.70
2023-01-19T03:17:03.333Z,0.97
2023-01-19T03:17:38.110Z,0.83
2023-01-19T03:18:14.783Z,0.70
2023-01-19T03:18:54.064Z,0.60
2023-01-19T03:19:39.620Z,0.67
2023-01-19T03:20:15.566Z,0.80
2023-01-19T03:20:53.527Z,0.73
2023-01-19T03:21:29.823Z,0.70
2023-01-19T03:22:09.286Z,0.50
2023-01-19T03:22:49.770Z,0.63
2023-01-19T03:23:30.265Z,0.60
2023-01-19T03:24:06.345Z,0.63
2023-01-19T03:24:45.458Z,0.77
2023-01-19T03:25:22.452Z,0.60
2023-01-19T03:25:59.137Z,0.57
2023-01-19T03:26:37.540Z,0.60
2023-01-19T03:27:17.468Z,0.73
2023-01-19T03:27:54.021Z,0.63
2023-01-19T03:28:29.341Z,0.80
2023-01-19T03:29:03.294Z,1.00
2023-01-19T03:29:38.659Z,0.77
2023-01-19T03:30:22.499Z,0.63
2023-01-19T03:31:18.718Z,0.57
2023-01-19T03:31:53.126Z,0.80
2023-01-19T03:32:32.975Z,0.90
2023-01-19T03:33:27.764Z,0.83
2023-01-19T03:34:08.402Z,0.77
2023-01-19T03:34:44.290Z,0.93
2023-01-19T03:35:19.357Z,0.90
2023-01-19T03:35:58.254Z,0.87
2023-01-19T03:36:38.061Z,1.03
2023-01-19T03:37:14.275Z,1.20
2023-01-19T03:37:50.700Z,1.47
2023-01-19T03:38:26.608Z,1.87
2023-01-19T03:39:00.157Z,1.77
2023-01-19T03:39:32.030Z,2.47
2023-01-19T03:40:04.025Z,2.63
2023-01-19T03:40:38.916Z,3.10
2023-01-19T03:41:16.738Z,3.93
2023-01-19T03:41:51.770Z,3.77
2023-01-19T03:42:27.182Z,4.33
2023-01-19T03:43:03.000Z,3.90
2023-01-19T03:43:39.657Z,3.90
2023-01-19T03:44:12.148Z,4.17
2023-01-19T03:44:52.743Z,5.17
2023-01-19T03:45:25.154Z,5.50
2023-01-19T03:45:57.946Z,5.23
2023-01-19T03:46:30.969Z,5.30
2023-01-19T03:47:04.966Z,6.37
2023-01-19T03:47:36.698Z,7.60
2023-01-19T03:48:08.861Z,7.87
2023-01-19T03:48:41.861Z,7.27
2023-01-19T03:49:14.137Z,5.67
2023-01-19T03:49:50.344Z,5.30
2023-01-19T03:50:29.560Z,5.30
2023-01-19T03:51:10.658Z,4.90
2023-01-19T03:51:42.569Z,4.80
2023-01-19T03:52:14.256Z,4.43
2023-01-19T03:52:48.723Z,4.43
2023-01-19T03:53:21.627Z,4.00
2023-01-19T03:53:53.320Z,4.30
2023-01-19T03:54:27.699Z,4.63
2023-01-19T03:55:04.550Z,3.90
2023-01-19T03:55:42.078Z,4.27
2023-01-19T03:56:25.203Z,4.23
2023-01-19T03:56:57.724Z,4.57
2023-01-19T03:57:29.441Z,4.43
2023-01-19T03:58:01.099Z,4.40
2023-01-19T03:58:32.742Z,4.37
2023-01-19T03:59:07.460Z,4.47
2023-01-19T03:59:39.070Z,4.93
2023-01-19T04:00:11.544Z,5.23
2023-01-19T04:00:43.324Z,4.90
2023-01-19T04:01:16.619Z,5.30
2023-01-19T04:01:48.820Z,5.13
2023-01-19T04:02:21.833Z,5.40
2023-01-19T04:02:53.618Z,5.87
2023-01-19T04:03:25.281Z,5.77
2023-01-19T04:03:57.008Z,6.97
2023-01-19T04:04:28.679Z,6.37
2023-01-19T04:05:00.312Z,6.97
2023-01-19T04:05:32.537Z,6.90
2023-01-19T04:06:04.368Z,6.83
2023-01-19T04:06:38.170Z,7.03
2023-01-19T04:07:11.063Z,7.27
2023-01-19T04:07:42.777Z,6.57
2023-01-19T04:08:14.439Z,6.67
2023-01-19T04:08:49.367Z,6.57
2023-01-19T04:09:21.018Z,6.30
2023-01-19T04:09:52.643Z,6.90
2023-01-19T04:10:24.992Z,6.70
2023-01-19T04:10:59.900Z,7.03
2023-01-19T04:11:31.768Z,6.40
2023-01-19T04:12:04.136Z,6.40
2023-01-19T04:12:35.781Z,5.60
2023-01-19T04:13:07.465Z,5.33
2023-01-19T04:13:39.203Z,5.30
2023-01-19T04:14:10.852Z,5.60
2023-01-19T04:14:42.507Z,5.77
2023-01-19T04:15:15.588Z,6.00
2023-01-19T04:15:47.557Z,5.07
2023-01-19T04:16:21.209Z,5.27
2023-01-19T04:16:55.737Z,4.83
2023-01-19T04:17:27.366Z,4.67
2023-01-19T04:18:03.110Z,4.80
2023-01-19T04:18:34.996Z,4.17
2023-01-19T04:19:06.639Z,4.03
2023-01-19T04:19:38.330Z,3.63
2023-01-19T04:20:10.665Z,3.83
2023-01-19T04:20:42.311Z,4.07
2023-01-19T04:21:15.924Z,4.13
2023-01-19T04:21:51.070Z,3.47
2023-01-19T04:22:25.161Z,3.03
2023-01-19T04:23:01.331Z,2.53
2023-01-19T04:23:33.804Z,2.53
2023-01-19T04:24:05.771Z,2.50
2023-01-19T04:24:37.425Z,2.47
2023-01-19T04:25:12.431Z,2.17
2023-01-19T04:25:44.091Z,2.37
2023-01-19T04:26:17.309Z,2.50
2023-01-19T04:26:53.148Z,2.23
2023-01-19T04:27:26.086Z,2.03
2023-01-19T04:28:08.062Z,2.13
2023-01-19T04:28:39.735Z,2.10
2023-01-19T04:29:11.429Z,1.97
2023-01-19T04:29:43.648Z,1.87
2023-01-19T04:30:15.456Z,2.00
2023-01-19T04:30:52.875Z,1.83
2023-01-19T04:31:24.688Z,1.87
2023-01-19T04:32:05.563Z,2.07
2023-01-19T04:32:37.182Z,1.73
2023-01-19T04:33:08.951Z,1.93
2023-01-19T04:33:40.589Z,2.13
2023-01-19T04:34:12.266Z,2.30
2023-01-19T04:34:43.950Z,2.50
2023-01-19T04:35:16.992Z,3.13
2023-01-19T04:35:51.215Z,3.43
2023-01-19T04:36:26.258Z,2.87
2023-01-19T04:36:57.902Z,2.70
2023-01-19T04:37:29.589Z,2.27
2023-01-19T04:38:01.248Z,2.40
2023-01-19T04:38:32.886Z,2.27
2023-01-19T04:39:05.068Z,2.40
2023-01-19T04:39:36.710Z,2.33
2023-01-19T04:40:09.151Z,2.27
2023-01-19T04:40:41.984Z,2.57
2023-01-19T04:41:13.789Z,2.80
2023-01-19T04:41:45.482Z,3.00
2023-01-19T04:42:20.000Z,3.07
2023-01-19T04:42:51.653Z,3.33
2023-01-19T04:43:27.113Z,3.27
2023-01-19T04:43:58.774Z,3.53
2023-01-19T04:44:30.429Z,3.63
2023-01-19T04:45:02.119Z,3.83
2023-01-19T04:45:34.108Z,4.20
2023-01-19T04:46:05.814Z,3.87
2023-01-19T04:46:37.534Z,4.30
2023-01-19T04:47:09.546Z,4.03
2023-01-19T04:47:42.715Z,4.40
2023-01-19T04:48:15.366Z,4.47
2023-01-19T04:48:46.991Z,4.67
2023-01-19T04:49:21.368Z,4.83
2023-01-19T04:49:53.104Z,4.63
2023-01-19T04:50:28.243Z,3.93
2023-01-19T04:50:59.980Z,3.93
2023-01-19T04:51:34.183Z,4.60
2023-01-19T04:52:06.316Z,4.67
2023-01-19T04:52:38.543Z,4.27
2023-01-19T04:53:11.000Z,4.17
2023-01-19T04:53:42.681Z,3.93
2023-01-19T04:54:14.391Z,3.97
2023-01-19T04:54:46.108Z,3.97
2023-01-19T04:55:18.481Z,3.97
2023-01-19T04:55:55.003Z,4.00
2023-01-19T04:56:26.649Z,3.83
2023-01-19T04:57:00.424Z,3.67
2023-01-19T04:57:35.394Z,4.57
2023-01-19T04:58:07.128Z,3.93
2023-01-19T04:58:41.377Z,3.97
2023-01-19T04:59:13.634Z,3.87
2023-01-19T04:59:45.428Z,4.03
2023-01-19T05:00:20.241Z,4.27
2023-01-19T05:00:53.128Z,4.30
2023-01-19T05:01:25.252Z,4.90
2023-01-19T05:01:56.984Z,5.00
2023-01-19T05:02:28.689Z,4.70
2023-01-19T05:03:01.640Z,3.80
2023-01-19T05:03:33.591Z,3.63
2023-01-19T05:04:07.082Z,4.17
2023-01-19T05:04:38.714Z,4.30
2023-01-19T05:05:10.395Z,4.03
2023-01-19T05:05:42.026Z,4.30
2023-01-19T05:06:13.692Z,3.97
2023-01-19T05:06:45.305Z,3.63
2023-01-19T05:07:17.310Z,3.77
2023-01-19T05:07:48.933Z,3.83
2023-01-19T05:08:20.638Z,4.13
2023-01-19T05:08:54.937Z,3.67
2023-01-19T05:09:27.377Z,3.80
2023-01-19T05:09:59.112Z,3.93
2023-01-19T05:10:30.768Z,3.53
2023-01-19T05:11:02.434Z,3.80
2023-01-19T05:11:34.077Z,4.13
2023-01-19T05:12:05.880Z,4.30
2023-01-19T05:12:37.629Z,3.77
2023-01-19T05:13:09.290Z,4.13
2023-01-19T05:13:40.953Z,4.00
2023-01-19T05:14:12.588Z,3.97
2023-01-19T05:14:44.348Z,3.63
2023-01-19T05:15:16.065Z,3.47
2023-01-19T05:15:47.773Z,4.23
2023-01-19T05:16:27.066Z,4.43
2023-01-19T05:16:58.809Z,4.27
2023-01-19T05:17:32.095Z,4.63
2023-01-19T05:18:03.856Z,4.80
2023-01-19T05:18:37.068Z,4.83
2023-01-19T05:19:08.815Z,4.77
2023-01-19T05:19:40.536Z,4.57
2023-01-19T05:20:15.863Z,5.13
2023-01-19T05:20:47.961Z,5.63
2023-01-19T05:21:20.126Z,5.97
2023-01-19T05:21:51.856Z,5.23
2023-01-19T05:22:23.543Z,5.63
2023-01-19T05:22:55.237Z,5.77
2023-01-19T05:23:28.225Z,6.00
2023-01-19T05:23:59.837Z,6.13
2023-01-19T05:24:31.981Z,5.43
2023-01-19T05:25:05.651Z,5.73
2023-01-19T05:25:37.306Z,5.33
2023-01-19T05:26:11.863Z,5.77
2023-01-19T05:26:43.528Z,6.37
2023-01-19T05:27:15.236Z,6.30
2023-01-19T05:27:52.113Z,5.97
2023-01-19T05:28:26.420Z,6.17
2023-01-19T05:28:58.115Z,6.10
2023-01-19T05:29:31.383Z,6.60
2023-01-19T05:30:05.051Z,6.33
2023-01-19T05:30:44.498Z,6.20
2023-01-19T05:31:18.495Z,5.80
2023-01-19T05:31:50.549Z,7.07
2023-01-19T05:32:22.341Z,7.47
2023-01-19T05:32:53.999Z,7.33
2023-01-19T05:33:27.414Z,7.30
2023-01-19T05:33:59.125Z,6.57
2023-01-19T05:34:30.773Z,6.30
2023-01-19T05:35:02.665Z,6.80
2023-01-19T05:35:36.277Z,7.37
2023-01-19T05:36:08.332Z,7.00
2023-01-19T05:36:43.069Z,6.97
2023-01-19T05:37:14.721Z,6.53
2023-01-19T05:37:46.563Z,6.80
2023-01-19T05:38:26.253Z,6.80
2023-01-19T05:39:01.210Z,6.87
2023-01-19T05:39:33.503Z,7.17
2023-01-19T05:40:06.145Z,6.37
2023-01-19T05:40:37.786Z,6.67
2023-01-19T05:41:12.128Z,6.73
2023-01-19T05:41:47.910Z,7.30
2023-01-19T05:42:19.694Z,6.97
2023-01-19T05:42:53.318Z,6.73
2023-01-19T05:43:25.502Z,7.73
2023-01-19T05:43:57.470Z,7.40
2023-01-19T05:44:29.725Z,6.83
2023-01-19T05:45:03.567Z,6.63
2023-01-19T05:45:35.280Z,6.60
2023-01-19T05:46:09.796Z,6.30
2023-01-19T05:46:41.502Z,7.10
2023-01-19T05:47:13.207Z,6.97
2023-01-19T05:47:44.860Z,6.60
2023-01-19T05:48:16.527Z,6.43
2023-01-19T05:48:48.169Z,7.13
2023-01-19T05:49:19.784Z,7.97
2023-01-19T05:49:51.462Z,7.43
2023-01-19T05:50:25.902Z,6.77
2023-01-19T05:50:59.087Z,6.93
2023-01-19T05:51:34.988Z,7.67
2023-01-19T05:52:06.641Z,7.43
2023-01-19T05:52:38.318Z,6.90
2023-01-19T05:53:09.981Z,7.33
2023-01-19T05:53:41.847Z,7.37
2023-01-19T05:54:18.076Z,7.60
2023-01-19T05:54:53.808Z,7.00
2023-01-19T05:55:28.579Z,7.43
2023-01-19T05:56:08.193Z,8.13
2023-01-19T05:56:40.136Z,8.13
2023-01-19T05:57:11.886Z,7.77
2023-01-19T05:57:43.564Z,6.67
2023-01-19T05:58:15.199Z,7.03
2023-01-19T05:58:46.824Z,7.47
2023-01-19T05:59:26.192Z,7.17
2023-01-19T05:59:57.821Z,6.57
2023-01-19T06:00:32.043Z,6.87
2023-01-19T06:01:10.245Z,7.30
2023-01-19T06:01:42.054Z,6.70
2023-01-19T06:02:13.914Z,6.70
2023-01-19T06:02:48.425Z,7.07
2023-01-19T06:03:20.227Z,7.10
2023-01-19T06:03:51.919Z,6.67
2023-01-19T06:04:23.641Z,6.87
2023-01-19T06:04:55.290Z,6.77
2023-01-19T06:05:27.488Z,7.03
2023-01-19T06:06:00.313Z,6.90
2023-01-19T06:06:32.144Z,6.90
2023-01-19T06:07:05.300Z,7.30
2023-01-19T06:07:38.315Z,7.17
2023-01-19T06:08:09.983Z,7.47
2023-01-19T06:08:42.416Z,8.17
2023-01-19T06:09:16.897Z,8.80
2023-01-19T06:09:48.546Z,7.30
2023-01-19T06:10:20.252Z,7.20
2023-01-19T06:10:54.536Z,8.00
2023-01-19T06:11:30.651Z,8.67
2023-01-19T06:12:02.315Z,7.63
2023-01-19T06:12:34.036Z,7.93
2023-01-19T06:13:06.043Z,7.77
2023-01-19T06:13:41.257Z,7.73
2023-01-19T06:14:16.347Z,8.03
2023-01-19T06:14:51.002Z,8.23
2023-01-19T06:15:22.955Z,8.10
2023-01-19T06:16:08.179Z,7.67
2023-01-19T06:16:39.925Z,7.97
2023-01-19T06:17:11.569Z,8.43
2023-01-19T06:17:43.209Z,8.47
2023-01-19T06:18:15.090Z,8.33
2023-01-19T06:18:49.046Z,8.30
2023-01-19T06:19:22.917Z,8.23
2023-01-19T06:19:54.544Z,8.40
2023-01-19T06:20:26.188Z,8.67
2023-01-19T06:21:02.490Z,8.67
2023-01-19T06:21:34.770Z,7.90
2023-01-19T06:22:09.409Z,8.53
2023-01-19T06:22:41.183Z,8.57
2023-01-19T06:23:20.070Z,8.17
2023-01-19T06:23:56.325Z,8.87
2023-01-19T06:24:28.098Z,8.93
2023-01-19T06:24:59.826Z,8.83
2023-01-19T06:25:35.612Z,8.80
2023-01-19T06:26:07.644Z,9.13
2023-01-19T06:26:39.355Z,9.27
2023-01-19T06:27:11.365Z,8.93
2023-01-19T06:27:46.227Z,9.50
2023-01-19T06:28:18.275Z,9.30
2023-01-19T06:28:52.414Z,10.50
2023-01-19T06:29:24.138Z,10.57
2023-01-19T06:29:55.798Z,10.00
2023-01-19T06:30:27.801Z,9.87
2023-01-19T06:30:59.539Z,10.47
2023-01-19T06:31:31.304Z,9.90
2023-01-19T06:32:03.281Z,10.27
2023-01-19T06:32:36.280Z,10.83
2023-01-19T06:33:07.915Z,10.30
2023-01-19T06:33:39.601Z,9.83
2023-01-19T06:34:11.506Z,10.77
2023-01-19T06:34:43.883Z,11.03
2023-01-19T06:35:15.643Z,11.23
2023-01-19T06:35:49.200Z,11.50
2023-01-19T06:36:23.311Z,10.67
2023-01-19T06:36:58.517Z,10.60
2023-01-19T06:37:34.071Z,10.50
2023-01-19T06:38:05.877Z,10.30
2023-01-19T06:38:37.538Z,10.23
2023-01-19T06:39:10.675Z,10.73
2023-01-19T06:39:43.356Z,10.27
2023-01-19T06:40:15.348Z,10.17
2023-01-19T06:40:55.778Z,10.90
2023-01-19T06:41:27.424Z,10.60
2023-01-19T06:41:59.549Z,10.23
2023-01-19T06:42:33.736Z,11.33
2023-01-19T06:43:05.990Z,9.83
2023-01-19T06:43:37.618Z,10.37
2023-01-19T06:44:09.282Z,11.50
2023-01-19T06:44:47.328Z,11.63
2023-01-19T06:45:19.078Z,11.00
2023-01-19T06:45:51.070Z,10.90
2023-01-19T06:46:22.784Z,11.43
2023-01-19T06:47:14.884Z,12.03
2023-01-19T06:47:47.842Z,11.20
2023-01-19T06:48:19.828Z,10.93
2023-01-19T06:48:51.711Z,10.93
2023-01-19T06:49:23.355Z,11.93
2023-01-19T06:49:55.032Z,12.57
2023-01-19T06:50:27.582Z,11.83
2023-01-19T06:51:02.145Z,11.43
2023-01-19T06:51:34.356Z,12.33
2023-01-19T06:52:06.000Z,11.47
2023-01-19T06:52:42.436Z,9.83
2023-01-19T06:53:16.607Z,10.90
2023-01-19T06:53:51.008Z,11.40
2023-01-19T06:54:22.669Z,11.10
2023-01-19T06:54:54.298Z,10.70
2023-01-19T06:55:27.694Z,10.77
2023-01-19T06:56:04.567Z,10.80
2023-01-19T06:56:36.777Z,11.53
2023-01-19T06:57:08.508Z,11.30
2023-01-19T06:57:40.349Z,11.67
2023-01-19T06:58:12.329Z,12.43
2023-01-19T06:58:43.972Z,11.50
2023-01-19T06:59:15.676Z,11.77
2023-01-19T06:59:47.321Z,11.57
2023-01-19T07:00:19.276Z,12.07
2023-01-19T07:00:51.731Z,12.50
2023-01-19T07:01:23.508Z,11.30
2023-01-19T07:01:56.674Z,11.37
2023-01-19T07:02:28.982Z,11.80
2023-01-19T07:03:01.114Z,12.10
2023-01-19T07:03:34.872Z,12.00
2023-01-19T07:04:06.547Z,12.27
2023-01-19T07:04:38.238Z,12.43
2023-01-19T07:05:17.239Z,11.40
2023-01-19T07:05:57.311Z,12.10
2023-01-19T07:06:29.009Z,12.03
2023-01-19T07:07:03.965Z,12.37
2023-01-19T07:07:36.587Z,12.17
2023-01-19T07:08:08.224Z,12.00
2023-01-19T07:08:40.154Z,13.47
2023-01-19T07:09:14.592Z,13.93
2023-01-19T07:09:47.292Z,13.77
2023-01-19T07:10:22.276Z,13.80
2023-01-19T07:11:25.495Z,13.80
2023-01-19T07:11:54.115Z,13.80
2023-01-19T07:12:25.827Z,14.20
2023-01-19T07:12:58.145Z,15.03
2023-01-19T07:13:30.716Z,15.53
2023-01-19T07:14:03.460Z,14.87
2023-01-19T07:14:35.098Z,15.00
2023-01-19T07:15:07.628Z,14.67
2023-01-19T07:15:41.916Z,14.43
2023-01-19T07:16:16.350Z,16.23
2023-01-19T07:16:48.085Z,16.40
2023-01-19T07:17:19.873Z,15.67
2023-01-19T07:17:54.405Z,15.27
2023-01-19T07:18:26.063Z,16.37
2023-01-19T07:18:57.725Z,18.10
2023-01-19T07:19:29.435Z,17.37
2023-01-19T07:20:01.792Z,17.30
2023-01-19T07:20:37.646Z,17.13
2023-01-19T07:21:09.587Z,15.97
2023-01-19T07:21:41.229Z,17.73
2023-01-19T07:22:15.091Z,19.20
2023-01-19T07:22:49.248Z,19.93
2023-01-19T07:23:23.473Z,17.47
2023-01-19T07:23:57.587Z,18.30
2023-01-19T07:24:32.281Z,18.60
2023-01-19T07:25:04.850Z,19.97
2023-01-19T07:25:36.658Z,19.40
2023-01-19T07:26:11.982Z,19.30
2023-01-19T07:26:43.617Z,17.87
2023-01-19T07:27:16.405Z,18.50
2023-01-19T07:27:50.178Z,19.30
2023-01-19T07:28:22.035Z,21.90
2023-01-19T07:28:53.678Z,20.77
2023-01-19T07:29:25.866Z,21.20
2023-01-19T07:29:57.564Z,22.93
2023-01-19T07:30:29.296Z,22.73
2023-01-19T07:31:01.117Z,23.63
2023-01-19T07:31:32.914Z,22.70
2023-01-19T07:32:04.765Z,23.03
2023-01-19T07:32:39.236Z,22.47
2023-01-19T07:33:13.096Z,22.33
2023-01-19T07:33:45.559Z,23.53
2023-01-19T07:34:18.811Z,23.50
2023-01-19T07:34:50.447Z,24.37
2023-01-19T07:35:22.128Z,24.77
2023-01-19T07:35:56.331Z,23.67
2023-01-19T07:36:27.981Z,24.27
2023-01-19T07:36:59.690Z,25.07
2023-01-19T07:37:31.376Z,24.10
2023-01-19T07:38:03.068Z,25.27
2023-01-19T07:38:36.981Z,25.40
2023-01-19T07:39:08.596Z,24.97
2023-01-19T07:39:41.511Z,25.90
2023-01-19T07:40:13.395Z,25.63
2023-01-19T07:40:47.088Z,25.63